createdAt,value
2023-04-15T00:01:07.915Z,6.05
2023-04-15T00:03:35.091Z,7.20
2023-04-15T00:06:02.471Z,7.03
2023-04-15T00:08:30.029Z,5.90
2023-04-15T00:10:56.745Z,5.43
2023-04-15T00:13:23.732Z,6.18
2023-04-15T00:15:50.366Z,5.55
2023-04-15T00:18:16.988Z,6.63
2023-04-15T00:20:43.555Z,7.70
2023-04-15T00:23:10.178Z,6.60
2023-04-15T00:25:36.821Z,5.45
2023-04-15T00:28:04.203Z,5.07
2023-04-15T00:30:31.527Z,4.72
2023-04-15T00:32:58.372Z,5.32
2023-04-15T00:35:25.558Z,6.03
2023-04-15T00:37:52.186Z,4.95
2023-04-15T00:40:20.942Z,6.82
2023-04-15T00:42:47.953Z,5.03
2023-04-15T00:45:14.605Z,4.43
2023-04-15T00:47:45.030Z,5.75
2023-04-15T00:50:12.927Z,4.97
2023-04-15T00:52:40.710Z,5.25
2023-04-15T00:55:08.768Z,8.52
2023-04-15T00:57:36.051Z,6.50
2023-04-15T01:00:04.699Z,4.68
2023-04-15T01:02:32.938Z,5.38
2023-04-15T01:04:59.728Z,7.35
2023-04-15T01:07:26.377Z,6.90
2023-04-15T01:09:53.175Z,5.75
2023-04-15T01:12:20.676Z,7.40
2023-04-15T01:14:47.455Z,7.15
2023-04-15T01:17:14.542Z,5.68
2023-04-15T01:19:41.545Z,8.38
2023-04-15T01:22:08.560Z,7.38
2023-04-15T01:24:37.013Z,6.78
2023-04-15T01:27:05.377Z,7.60
2023-04-15T01:29:38.519Z,6.30
2023-04-15T01:34:34.992Z,7.20
2023-04-15T01:37:02.311Z,6.78
2023-04-15T01:39:29.145Z,6.38
2023-04-15T01:41:55.731Z,7.30
2023-04-15T01:44:22.771Z,6.40
2023-04-15T01:46:49.534Z,6.45
2023-04-15T01:49:16.192Z,6.65
2023-04-15T01:51:42.809Z,6.55
2023-04-15T01:54:09.507Z,6.57
2023-04-15T01:56:36.128Z,7.38
2023-04-15T01:59:03.870Z,8.27
2023-04-15T02:01:30.607Z,8.73
2023-04-15T02:03:57.425Z,6.15
2023-04-15T02:06:24.628Z,8.80
2023-04-15T02:08:51.284Z,6.28
2023-04-15T02:11:18.324Z,6.10
2023-04-15T02:13:44.908Z,8.77
2023-04-15T02:16:19.281Z,6.80
2023-04-15T02:18:47.077Z,6.78
2023-04-15T02:21:14.156Z,6.93
2023-04-15T02:23:41.102Z,8.65
2023-04-15T02:26:08.258Z,7.75
2023-04-15T02:28:34.959Z,7.38
2023-04-15T02:31:06.586Z,6.85
2023-04-15T02:33:33.633Z,9.70
2023-04-15T02:36:00.387Z,8.98
2023-04-15T02:38:27.039Z,8.07
2023-04-15T02:40:53.758Z,7.40
2023-04-15T02:43:20.442Z,8.18
2023-04-15T02:45:47.410Z,8.43
2023-04-15T02:48:14.140Z,8.63
2023-04-15T02:50:41.071Z,10.93
2023-04-15T02:53:07.789Z,11.27
2023-04-15T02:55:34.519Z,10.43
2023-04-15T02:58:01.294Z,11.85
2023-04-15T03:00:28.347Z,10.27
2023-04-15T03:02:59.653Z,10.00
2023-04-15T03:05:26.688Z,9.00
2023-04-15T03:07:53.958Z,10.63
2023-04-15T03:10:21.315Z,10.82
2023-04-15T03:12:48.437Z,8.02
2023-04-15T03:15:15.761Z,10.85
2023-04-15T03:17:42.433Z,8.57
2023-04-15T03:20:09.706Z,9.02
2023-04-15T03:22:36.370Z,9.88
2023-04-15T03:25:02.963Z,9.90
2023-04-15T03:27:29.607Z,9.40
2023-04-15T03:29:56.893Z,7.95
2023-04-15T03:32:23.653Z,8.20
2023-04-15T03:34:50.371Z,9.65
2023-04-15T03:37:17.053Z,9.63
2023-04-15T03:39:43.662Z,7.38
2023-04-15T03:42:10.270Z,8.30
2023-04-15T03:44:37.256Z,7.30
2023-04-15T03:47:03.881Z,8.82
2023-04-15T03:49:30.576Z,8.45
2023-04-15T03:51:57.456Z,10.98
2023-04-15T03:54:24.156Z,10.98
2023-04-15T03:56:50.827Z,9.57
2023-04-15T03:59:17.460Z,8.10
2023-04-15T04:01:44.097Z,10.52
2023-04-15T04:04:11.126Z,8.45
2023-04-15T04:06:37.873Z,8.88
2023-04-15T04:09:04.472Z,9.32
2023-04-15T04:11:31.802Z,8.48
2023-04-15T04:13:58.551Z,7.78
2023-04-15T04:16:25.354Z,8.48
2023-04-15T04:18:52.113Z,8.43
2023-04-15T04:21:18.844Z,8.32
2023-04-15T04:23:45.547Z,6.93
2023-04-15T04:26:12.169Z,7.90
2023-04-15T04:28:40.645Z,8.07
2023-04-15T04:31:07.870Z,7.88
2023-04-15T04:33:34.634Z,9.52
2023-04-15T04:36:01.534Z,7.63
2023-04-15T04:38:28.322Z,8.95
2023-04-15T04:40:55.004Z,8.85
2023-04-15T04:43:21.931Z,6.32
2023-04-15T04:45:48.592Z,6.00
2023-04-15T04:48:15.297Z,7.45
2023-04-15T04:50:42.081Z,8.60
2023-04-15T04:53:09.049Z,8.48
2023-04-15T04:55:37.120Z,6.32
2023-04-15T04:58:03.835Z,6.25
2023-04-15T05:00:30.587Z,8.05
2023-04-15T05:02:57.450Z,7.07
2023-04-15T05:05:24.238Z,8.95
2023-04-15T05:07:51.244Z,7.40
2023-04-15T05:10:18.362Z,8.43
2023-04-15T05:12:45.205Z,7.78
2023-04-15T05:15:12.272Z,10.02
2023-04-15T05:17:39.074Z,9.32
2023-04-15T05:20:06.308Z,8.57
2023-04-15T05:22:33.175Z,9.82
2023-04-15T05:24:59.945Z,10.35
2023-04-15T05:27:26.642Z,8.65
2023-04-15T05:29:53.269Z,9.90
2023-04-15T05:32:19.941Z,8.00
2023-04-15T05:34:47.115Z,8.13
2023-04-15T05:37:13.811Z,7.47
2023-04-15T05:39:40.502Z,7.60
2023-04-15T05:42:07.663Z,7.95
2023-04-15T05:44:34.426Z,11.57
2023-04-15T05:47:01.071Z,6.65
2023-04-15T05:49:27.686Z,7.30
2023-04-15T05:51:54.375Z,7.22
2023-04-15T05:54:23.256Z,5.95
2023-04-15T05:56:49.867Z,6.57
2023-04-15T05:59:16.822Z,6.00
2023-04-15T06:01:43.940Z,6.30
2023-04-15T06:04:11.678Z,5.57
2023-04-15T06:06:38.755Z,5.65
2023-04-15T06:09:05.417Z,6.18
2023-04-15T06:11:32.277Z,6.93
2023-04-15T06:13:58.906Z,6.03
2023-04-15T06:16:25.666Z,6.35
2023-04-15T06:18:52.329Z,15.50
2023-04-15T06:21:19.422Z,13.13
2023-04-15T06:23:46.352Z,6.78
2023-04-15T06:26:12.940Z,6.00
2023-04-15T06:28:39.624Z,6.90
2023-04-15T06:31:06.477Z,6.38
2023-04-15T06:33:33.135Z,5.40
2023-04-15T06:35:59.763Z,6.53
2023-04-15T06:38:26.563Z,5.72
2023-04-15T06:40:53.315Z,4.80
2023-04-15T06:43:20.949Z,4.05
2023-04-15T06:45:47.730Z,3.38
2023-04-15T06:48:14.472Z,5.65
2023-04-15T06:50:41.403Z,3.40
2023-04-15T06:53:08.066Z,5.32
2023-04-15T06:55:34.713Z,5.00
2023-04-15T06:58:01.353Z,3.80
2023-04-15T07:00:28.797Z,3.83
2023-04-15T07:02:55.974Z,4.20
2023-04-15T07:05:23.336Z,4.68
2023-04-15T07:07:50.342Z,3.90
2023-04-15T07:10:17.348Z,4.88
2023-04-15T07:12:44.026Z,4.40
2023-04-15T07:15:11.118Z,4.72
2023-04-15T07:17:37.795Z,5.75
2023-04-15T07:20:05.109Z,4.90
2023-04-15T07:22:31.760Z,5.70
2023-04-15T07:24:58.384Z,4.65
2023-04-15T07:27:25.104Z,5.35
2023-04-15T07:29:52.337Z,4.55
2023-04-15T07:32:19.583Z,4.20
2023-04-15T07:34:46.435Z,4.40
2023-04-15T07:37:13.693Z,4.78
2023-04-15T07:39:40.326Z,4.93
2023-04-15T07:42:07.005Z,4.82
2023-04-15T07:44:35.705Z,4.20
2023-04-15T07:47:03.057Z,4.80
2023-04-15T07:49:29.855Z,4.70
2023-04-15T07:51:57.711Z,4.13
2023-04-15T07:54:24.478Z,3.78
2023-04-15T07:56:51.389Z,3.90
2023-04-15T07:59:18.222Z,3.22
2023-04-15T08:01:45.122Z,2.47
2023-04-15T08:04:12.005Z,2.78
2023-04-15T08:06:40.023Z,2.95
2023-04-15T08:09:07.227Z,2.40
2023-04-15T08:11:34.104Z,2.47
2023-04-15T08:14:00.712Z,2.42
2023-04-15T08:16:28.346Z,2.55
2023-04-15T08:18:56.752Z,2.00
2023-04-15T08:21:23.995Z,2.08
2023-04-15T08:23:52.373Z,2.20
2023-04-15T08:26:20.192Z,3.53
2023-04-15T08:28:47.553Z,2.58
2023-04-15T08:31:15.584Z,2.40
2023-04-15T08:33:42.662Z,2.35
2023-04-15T08:36:09.447Z,2.47
2023-04-15T08:38:36.556Z,2.17
2023-04-15T08:41:07.940Z,2.30
2023-04-15T08:43:35.870Z,3.35
2023-04-15T08:46:04.419Z,3.25
2023-04-15T08:48:33.567Z,2.60
2023-04-15T08:51:00.966Z,2.67
2023-04-15T08:53:29.544Z,2.38
2023-04-15T08:55:57.973Z,2.65
2023-04-15T08:58:25.525Z,3.30
2023-04-15T09:00:52.362Z,2.45
2023-04-15T09:03:19.257Z,2.95
2023-04-15T09:05:47.065Z,4.38
2023-04-15T09:08:13.819Z,3.65
2023-04-15T09:10:40.489Z,4.72
2023-04-15T09:13:07.153Z,2.97
2023-04-15T09:15:33.824Z,4.55
2023-04-15T09:18:00.866Z,2.88
2023-04-15T09:20:28.026Z,4.85
2023-04-15T09:22:54.908Z,5.13
2023-04-15T09:25:24.932Z,4.88
2023-04-15T09:27:53.080Z,3.80
2023-04-15T09:30:19.748Z,5.18
2023-04-15T09:32:54.462Z,4.22
2023-04-15T09:35:22.464Z,6.95
2023-04-15T09:37:52.621Z,5.63
2023-04-15T09:40:37.183Z,5.32
2023-04-15T09:43:05.589Z,5.32
2023-04-15T09:45:33.637Z,4.32
2023-04-15T09:48:15.900Z,4.68
2023-04-15T09:50:44.027Z,6.20
2023-04-15T09:53:12.435Z,5.40
2023-04-15T09:55:39.110Z,4.60
2023-04-15T09:58:10.370Z,5.35
2023-04-15T10:00:38.472Z,4.97
2023-04-15T10:03:06.049Z,5.50
2023-04-15T10:05:33.196Z,5.88
2023-04-15T10:08:00.761Z,5.78
2023-04-15T10:10:27.499Z,5.43
2023-04-15T10:12:54.715Z,5.63
2023-04-15T10:15:22.751Z,4.75
2023-04-15T10:17:53.548Z,6.03
2023-04-15T10:20:22.647Z,4.82
2023-04-15T10:22:49.702Z,4.07
2023-04-15T10:25:16.519Z,4.10
2023-04-15T10:27:43.680Z,4.32
2023-04-15T10:30:11.645Z,4.38
2023-04-15T10:32:38.874Z,5.78
2023-04-15T10:35:06.872Z,5.75
2023-04-15T10:37:38.231Z,6.00
2023-04-15T10:40:29.464Z,6.20
2023-04-15T10:42:56.675Z,5.65
2023-04-15T10:45:27.310Z,7.20
2023-04-15T10:47:58.861Z,6.53
2023-04-15T10:50:27.809Z,5.33
2023-04-15T10:52:54.623Z,6.00
2023-04-15T10:55:24.756Z,4.78
2023-04-15T10:57:58.316Z,6.13
2023-04-15T11:00:26.839Z,5.32
2023-04-15T11:02:59.306Z,5.38
2023-04-15T11:05:41.546Z,5.28
2023-04-15T11:08:12.426Z,6.72
2023-04-15T11:10:38.983Z,6.80
2023-04-15T11:13:16.683Z,7.95
2023-04-15T11:15:47.808Z,7.07
2023-04-15T11:18:22.396Z,7.35
2023-04-15T11:20:51.725Z,9.85
2023-04-15T11:23:19.979Z,6.82
2023-04-15T11:25:47.584Z,8.57
2023-04-15T11:28:14.396Z,6.88
2023-04-15T11:30:42.334Z,6.68
2023-04-15T11:33:10.919Z,7.78
2023-04-15T11:35:37.618Z,7.65
2023-04-15T11:38:05.613Z,6.68
2023-04-15T11:40:35.550Z,8.32
2023-04-15T11:43:16.715Z,9.55
2023-04-15T11:45:53.880Z,9.60
2023-04-15T11:48:23.139Z,7.07
2023-04-15T11:50:58.006Z,9.63
2023-04-15T11:53:25.526Z,7.32
2023-04-15T11:55:54.003Z,6.40
2023-04-15T11:58:25.422Z,8.90
2023-04-15T12:00:58.892Z,7.38
2023-04-15T12:03:36.508Z,7.05
2023-04-15T12:06:20.489Z,9.25
2023-04-15T12:09:02.191Z,7.82
2023-04-15T12:11:31.696Z,7.10
2023-04-15T12:14:04.040Z,7.22
2023-04-15T12:16:31.386Z,7.90
2023-04-15T12:18:59.699Z,7.80
2023-04-15T12:21:28.188Z,7.70
2023-04-15T12:23:56.586Z,8.00
2023-04-15T12:26:43.146Z,8.15
2023-04-15T12:29:11.701Z,7.05
2023-04-15T12:31:50.850Z,6.22
2023-04-15T12:34:18.222Z,6.00
2023-04-15T12:36:44.819Z,6.40
2023-04-15T12:39:11.426Z,5.43
2023-04-15T12:41:38.037Z,5.00
2023-04-15T12:44:05.625Z,6.00
2023-04-15T12:46:32.752Z,5.80
2023-04-15T12:48:59.509Z,6.05
2023-04-15T12:51:27.382Z,5.00
2023-04-15T12:53:54.044Z,6.15
2023-04-15T12:56:20.682Z,5.28
2023-04-15T12:58:47.521Z,6.22
2023-04-15T13:01:14.185Z,6.10
2023-04-15T13:03:41.307Z,6.85
2023-04-15T13:06:08.295Z,6.80
2023-04-15T13:08:36.784Z,7.25
2023-04-15T13:11:05.121Z,6.45
2023-04-15T13:13:32.060Z,5.50
2023-04-15T13:15:58.886Z,7.90
2023-04-15T13:18:25.817Z,7.72
2023-04-15T13:20:52.629Z,7.25
2023-04-15T13:23:19.222Z,7.03
2023-04-15T13:25:45.975Z,7.50
2023-04-15T13:28:12.933Z,7.05
2023-04-15T13:30:39.607Z,7.60
2023-04-15T13:33:06.346Z,7.10
2023-04-15T13:35:33.831Z,6.65
2023-04-15T13:38:00.481Z,6.63
2023-04-15T13:40:27.432Z,7.25
2023-04-15T13:42:54.064Z,7.47
2023-04-15T13:45:20.792Z,7.85
2023-04-15T13:47:47.522Z,7.47
2023-04-15T13:50:14.281Z,7.70
2023-04-15T13:52:40.873Z,6.60
2023-04-15T13:55:19.865Z,5.75
2023-04-15T13:57:47.932Z,7.47
2023-04-15T14:00:14.911Z,7.25
2023-04-15T14:02:42.452Z,7.05
2023-04-15T14:05:10.886Z,8.32
2023-04-15T14:07:37.889Z,5.13
2023-04-15T14:10:05.142Z,6.38
2023-04-15T14:12:31.827Z,6.50
2023-04-15T14:14:58.443Z,6.95
2023-04-15T14:17:25.220Z,6.60
2023-04-15T14:19:51.932Z,6.93
2023-04-15T14:22:19.031Z,7.38
2023-04-15T14:24:45.810Z,6.95
2023-04-15T14:27:12.640Z,6.05
2023-04-15T14:29:39.303Z,7.95
2023-04-15T14:32:12.064Z,6.38
2023-04-15T14:34:39.599Z,8.32
2023-04-15T14:37:06.492Z,10.13
2023-04-15T14:39:33.145Z,8.45
2023-04-15T14:41:59.962Z,8.35
2023-04-15T14:44:26.558Z,7.78
2023-04-15T14:46:53.305Z,10.85
2023-04-15T14:49:20.027Z,8.57
2023-04-15T14:51:46.693Z,10.47
2023-04-15T14:54:13.311Z,10.43
2023-04-15T14:56:39.955Z,8.55
2023-04-15T14:59:06.673Z,6.53
2023-04-15T15:01:34.393Z,6.88
2023-04-15T15:04:01.357Z,9.45
2023-04-15T15:06:28.425Z,7.50
2023-04-15T15:08:55.109Z,8.07
2023-04-15T15:11:21.787Z,6.65
2023-04-15T15:13:48.484Z,7.85
2023-04-15T15:16:15.173Z,6.82
2023-04-15T15:18:41.836Z,7.85
2023-04-15T15:21:08.447Z,10.32
2023-04-15T15:23:35.356Z,9.10
2023-04-15T15:26:02.053Z,7.90
2023-04-15T15:28:28.726Z,7.88
2023-04-15T15:30:55.589Z,6.22
2023-04-15T15:33:22.564Z,8.23
2023-04-15T15:35:49.272Z,5.90
2023-04-15T15:38:16.250Z,8.52
2023-04-15T15:40:42.857Z,8.27
2023-04-15T15:43:09.572Z,5.95
2023-04-15T15:45:36.204Z,7.13
2023-04-15T15:48:03.001Z,6.50
2023-04-15T15:50:29.816Z,8.98
2023-04-15T15:52:56.492Z,6.43
2023-04-15T15:55:25.250Z,8.98
2023-04-15T15:57:51.999Z,6.50
2023-04-15T16:00:18.735Z,8.80
2023-04-15T16:05:15.040Z,7.22
2023-04-15T16:07:41.704Z,8.18
2023-04-15T16:10:08.929Z,8.60
2023-04-15T16:12:35.723Z,7.53
2023-04-15T16:15:02.972Z,7.22
2023-04-15T16:17:29.655Z,10.88
2023-04-15T16:20:00.283Z,8.10
2023-04-15T16:22:27.993Z,9.68
2023-04-15T16:24:54.629Z,8.50
2023-04-15T16:27:21.344Z,9.93
2023-04-15T16:29:47.998Z,11.10
2023-04-15T16:32:14.672Z,9.43
2023-04-15T16:34:41.589Z,11.88
2023-04-15T16:37:08.486Z,7.55
2023-04-15T16:39:35.358Z,8.93
2023-04-15T16:42:03.275Z,10.00
2023-04-15T16:44:30.754Z,10.18
2023-04-15T16:46:57.360Z,9.77
2023-04-15T16:49:23.936Z,8.52
2023-04-15T16:51:50.977Z,9.52
2023-04-15T16:54:18.614Z,8.48
2023-04-15T16:56:45.294Z,9.82
2023-04-15T16:59:12.861Z,8.00
2023-04-15T17:01:39.833Z,8.55
2023-04-15T17:04:07.320Z,7.68
2023-04-15T17:06:34.056Z,8.20
2023-04-15T17:09:00.713Z,8.07
2023-04-15T17:11:28.118Z,8.80
2023-04-15T17:13:54.787Z,8.90
2023-04-15T17:16:21.631Z,7.55
2023-04-15T17:18:50.286Z,9.25
2023-04-15T17:21:17.582Z,7.68
2023-04-15T17:23:44.280Z,9.48
2023-04-15T17:26:11.173Z,7.45
2023-04-15T17:28:38.086Z,8.38
2023-04-15T17:31:05.340Z,9.23
2023-04-15T17:33:56.283Z,7.80
2023-04-15T17:36:18.701Z,30.83
2023-04-15T17:38:45.746Z,8.60
2023-04-15T17:41:12.615Z,7.45
2023-04-15T17:43:39.235Z,7.47
2023-04-15T17:46:08.962Z,8.48
2023-04-15T17:48:35.850Z,7.70
2023-04-15T17:51:02.468Z,8.27
2023-04-15T17:53:29.245Z,8.70
2023-04-15T17:55:56.693Z,7.93
2023-04-15T17:58:23.324Z,8.63
2023-04-15T18:00:49.991Z,7.43
2023-04-15T18:03:16.852Z,9.88
2023-04-15T18:05:43.516Z,9.50
2023-04-15T18:08:10.252Z,15.00
2023-04-15T18:10:38.376Z,16.05
2023-04-15T18:13:05.248Z,16.27
2023-04-15T18:15:32.627Z,19.95
2023-04-15T18:18:00.336Z,13.13
2023-04-15T18:20:27.885Z,12.85
2023-04-15T18:22:55.709Z,20.70
2023-04-15T18:25:22.373Z,18.52
2023-04-15T18:27:49.709Z,13.95
2023-04-15T18:30:16.386Z,15.43
2023-04-15T18:32:43.388Z,17.48
2023-04-15T18:35:10.379Z,8.50
2023-04-15T18:37:37.145Z,7.68
2023-04-15T18:40:04.143Z,7.65
2023-04-15T18:42:30.781Z,7.75
2023-04-15T18:44:57.478Z,8.02
2023-04-15T18:47:27.021Z,8.38
2023-04-15T18:49:54.020Z,7.10
2023-04-15T18:52:21.033Z,6.38
2023-04-15T18:54:47.708Z,7.32
2023-04-15T18:57:14.360Z,8.63
2023-04-15T18:59:47.243Z,9.85
2023-04-15T19:02:13.891Z,7.72
2023-04-15T19:04:40.597Z,7.72
2023-04-15T19:07:09.217Z,8.68
2023-04-15T19:09:36.432Z,8.23
2023-04-15T19:12:03.491Z,10.00
2023-04-15T19:14:30.111Z,8.55
2023-04-15T19:16:56.834Z,13.90
2023-04-15T19:19:23.597Z,22.05
2023-04-15T19:21:50.532Z,13.30
2023-04-15T19:24:18.220Z,7.85
2023-04-15T19:26:48.414Z,10.05
2023-04-15T19:29:15.013Z,10.57
2023-04-15T19:31:41.649Z,9.80
2023-04-15T19:34:08.248Z,10.57
2023-04-15T19:36:34.876Z,7.85
2023-04-15T19:39:01.775Z,9.20
2023-04-15T19:41:28.532Z,6.82
2023-04-15T19:43:55.223Z,8.15
2023-04-15T19:46:21.963Z,8.07
2023-04-15T19:48:48.837Z,7.30
2023-04-15T19:51:15.573Z,7.60
2023-04-15T19:53:42.235Z,8.68
2023-04-15T19:56:09.143Z,7.90
2023-04-15T19:58:35.828Z,7.90
2023-04-15T20:01:02.450Z,7.93
2023-04-15T20:03:29.347Z,9.23
2023-04-15T20:05:56.041Z,8.23
2023-04-15T20:13:15.701Z,5.70
2023-04-15T20:15:42.409Z,9.38
2023-04-15T20:18:09.073Z,8.60
2023-04-15T20:20:35.894Z,7.85
2023-04-15T20:23:02.542Z,8.70
2023-04-15T20:25:29.175Z,5.50
2023-04-15T20:27:57.165Z,6.78
2023-04-15T20:30:25.433Z,6.32
2023-04-15T20:32:52.090Z,5.88
2023-04-15T20:35:19.894Z,5.40
2023-04-15T20:37:46.507Z,6.03
2023-04-15T20:40:14.548Z,4.38
2023-04-15T20:42:43.671Z,6.25
2023-04-15T20:45:10.766Z,4.82
2023-04-15T20:47:37.434Z,4.82
2023-04-15T20:50:04.435Z,3.67
2023-04-15T20:52:31.181Z,4.30
2023-04-15T20:54:57.793Z,5.47
2023-04-15T20:57:27.146Z,5.07
2023-04-15T20:59:53.752Z,4.70
2023-04-15T21:02:20.712Z,4.20
2023-04-15T21:04:47.364Z,5.20
2023-04-15T21:07:14.052Z,6.30
2023-04-15T21:09:42.939Z,4.70
2023-04-15T21:12:11.001Z,4.65
2023-04-15T21:14:38.261Z,5.38
2023-04-15T21:17:10.796Z,4.80
2023-04-15T21:19:38.487Z,6.00
2023-04-15T21:22:05.098Z,5.63
2023-04-15T21:24:31.730Z,5.18
2023-04-15T21:26:58.371Z,5.72
2023-04-15T21:29:25.706Z,6.10
2023-04-15T21:31:52.361Z,6.40
2023-04-15T21:34:19.139Z,5.80
2023-04-15T21:36:45.745Z,5.63
2023-04-15T21:39:12.473Z,5.97
2023-04-15T21:41:39.091Z,5.60
2023-04-15T21:44:06.117Z,6.05
2023-04-15T21:46:35.581Z,5.70
2023-04-15T21:49:03.115Z,6.35
2023-04-15T21:51:29.957Z,5.78
2023-04-15T21:53:56.584Z,6.43
2023-04-15T21:56:24.221Z,6.05
2023-04-15T21:58:54.218Z,6.13
2023-04-15T22:01:21.082Z,5.65
2023-04-15T22:03:47.957Z,5.82
2023-04-15T22:06:14.766Z,6.57
2023-04-15T22:08:54.913Z,6.32
2023-04-15T22:11:26.863Z,7.00
2023-04-15T22:13:54.725Z,7.47
2023-04-15T22:16:21.561Z,8.13
2023-04-15T22:18:48.443Z,7.50
2023-04-15T22:21:15.187Z,6.40
2023-04-15T22:23:41.807Z,7.35
2023-04-15T22:26:08.452Z,6.82
2023-04-15T22:28:35.041Z,6.68
2023-04-15T22:31:02.524Z,7.70
2023-04-15T22:33:29.455Z,7.25
2023-04-15T22:35:56.470Z,6.53
2023-04-15T22:38:25.385Z,5.53
2023-04-15T22:40:53.993Z,5.72
2023-04-15T22:43:20.758Z,6.10
2023-04-15T22:45:50.865Z,6.32
2023-04-15T22:48:18.444Z,6.25
2023-04-15T22:50:45.195Z,6.70
2023-04-15T22:53:11.859Z,7.65
2023-04-15T22:55:38.508Z,8.68
2023-04-15T22:58:05.225Z,6.60
2023-04-15T23:00:31.808Z,7.22
2023-04-15T23:02:58.586Z,7.75
2023-04-15T23:05:25.438Z,7.20
2023-04-15T23:07:52.128Z,8.18
2023-04-15T23:10:18.723Z,7.15
2023-04-15T23:12:45.398Z,6.65
2023-04-15T23:15:12.079Z,9.23
2023-04-15T23:17:38.905Z,8.77
2023-04-15T23:20:06.455Z,8.45
2023-04-15T23:22:37.469Z,8.85
2023-04-15T23:25:05.523Z,7.93
2023-04-15T23:27:32.228Z,9.68
2023-04-15T23:29:58.877Z,7.70
2023-04-15T23:32:25.575Z,6.80
2023-04-15T23:34:52.312Z,8.65
2023-04-15T23:37:19.035Z,8.32
2023-04-15T23:39:45.654Z,8.23
2023-04-15T23:42:12.386Z,7.50
2023-04-15T23:44:38.989Z,8.15
2023-04-15T23:47:05.817Z,6.53
2023-04-15T23:49:32.466Z,7.03
2023-04-15T23:51:59.207Z,8.20
2023-04-15T23:54:25.840Z,9.18
2023-04-15T23:56:52.464Z,7.95
2023-04-15T23:59:19.062Z,7.10
